Shinsei Maru — JD2188 — position and weather

sailwx.info

Track history (hours):
 
Tides and Currents Weather Stations Pressure Air Temp Water Temp Dewpoint Dewpoint Depression Visibility Wind Speed Wind Dir Waves Ship Positions

Shinsei Maru

Last reported at 2015-Jan-25 13:33 UTC. Time now 2015-Jan-28 22:15 UTC.
Position N 34°45' E 139°42'.

Length 104 m; draft 6.5 m.

Type: Tanker. MMSI: 431301775.

Date/timePositionNaut miles runAvg speedWind from/ knotsBaromVisibWave heightAir tempDewpointWater temp
2015-Jan-25 13:33N 34°45' E 139°42'1412.5
2015-Jan-25 12:25N 34°52' E 139°57'  
2015-Jan-20 20:28N 34°57' E 139°44'1212.9
2015-Jan-20 19:33N 35°09' E 139°45'1212.1
2015-Jan-20 18:33N 35°21' E 139°43'1110.8
2015-Jan-20 17:33N 35°31' E 139°46'0 0.2
2015-Jan-20 16:31N 35°31' E 139°46'0 0.0
2015-Jan-20 15:31N 35°31' E 139°46'0 0.0
2015-Jan-20 14:31N 35°31' E 139°46'0 0.0
2015-Jan-20 13:16N 35°31' E 139°46'0 0.0
2015-Jan-20 12:28N 35°31' E 139°46'0 0.0
2015-Jan-20 11:28N 35°31' E 139°46'0 0.0
2015-Jan-20 10:25N 35°31' E 139°46'0 0.0
2015-Jan-20 09:31N 35°31' E 139°46'0 0.0
2015-Jan-20 08:31N 35°31' E 139°46'0 0.0
2015-Jan-20 07:31N 35°31' E 139°46'4 4.5
2015-Jan-20 06:33N 35°28' E 139°42'5 4.6
2015-Jan-20 05:31N 35°24' E 139°44'0 0.0
2015-Jan-20 04:31N 35°24' E 139°44'0 0.1
2015-Jan-20 03:19N 35°24' E 139°44'0 0.0
2015-Jan-20 02:25N 35°24' E 139°44'0 0.0
2015-Jan-20 01:31N 35°24' E 139°44'0 0.0
2015-Jan-20 00:28N 35°24' E 139°44'0 0.0
2015-Jan-19 23:28N 35°24' E 139°44'4 3.9
2015-Jan-19 22:33N 35°20' E 139°44'1211.9
2015-Jan-19 21:33N 35°09' E 139°46'1413.9
2015-Jan-19 20:33N 34°55' E 139°45'1312.6
2015-Jan-19 19:32N 34°54' E 140°01'  
2015-Jan-17 13:04N 34°53' E 139°47'713.4
2015-Jan-17 12:33N 34°59' E 139°43'1414.1
2015-Jan-17 11:33N 35°12' E 139°46'1312.6
2015-Jan-17 10:34N 35°25' E 139°43'7 6.6
2015-Jan-17 09:32N 35°31' E 139°46'0 0.0
2015-Jan-17 08:29N 35°31' E 139°46'0 0.0
2015-Jan-17 07:23N 35°31' E 139°46'0 0.0
2015-Jan-17 06:20N 35°31' E 139°46'0 0.0
2015-Jan-17 05:23N 35°31' E 139°46'0 0.0
2015-Jan-17 04:32N 35°31' E 139°46'0 0.0
2015-Jan-17 03:23N 35°31' E 139°46'0 0.1
2015-Jan-17 02:30N 35°31' E 139°46'5 5.6
2015-Jan-17 01:33N 35°26' E 139°44'2 2.4
2015-Jan-17 00:31N 35°24' E 139°44'1010.5
2015-Jan-16 23:33N 35°14' E 139°47'1413.5
2015-Jan-16 22:33N 35°00' E 139°44'11 8.9
2015-Jan-16 21:20N 34°52' E 139°52'810.0
2015-Jan-16 20:33N 34°54' E 140°01'  
Track history (hours):
 
Tides and Currents Weather Stations Pressure Air Temp Water Temp Dewpoint Dewpoint Depression Visibility Wind Speed Wind Dir Waves Ship Positions

Shinsei Maru

Last reported at 2015-Jan-25 13:33 UTC. Time now 2015-Jan-28 22:15 UTC.
Position N 34°45' E 139°42'.

Length 104 m; draft 6.5 m.

Type: Tanker. MMSI: 431301775.

Date/timePositionNaut miles runAvg speedWind from/ knotsBaromVisibWave heightAir tempDewpointWater temp
2015-Jan-25 13:33N 34°45' E 139°42'1412.5
2015-Jan-25 12:25N 34°52' E 139°57'  
2015-Jan-20 20:28N 34°57' E 139°44'1212.9
2015-Jan-20 19:33N 35°09' E 139°45'1212.1
2015-Jan-20 18:33N 35°21' E 139°43'1110.8
2015-Jan-20 17:33N 35°31' E 139°46'0 0.2
2015-Jan-20 16:31N 35°31' E 139°46'0 0.0
2015-Jan-20 15:31N 35°31' E 139°46'0 0.0
2015-Jan-20 14:31N 35°31' E 139°46'0 0.0
2015-Jan-20 13:16N 35°31' E 139°46'0 0.0
2015-Jan-20 12:28N 35°31' E 139°46'0 0.0
2015-Jan-20 11:28N 35°31' E 139°46'0 0.0
2015-Jan-20 10:25N 35°31' E 139°46'0 0.0
2015-Jan-20 09:31N 35°31' E 139°46'0 0.0
2015-Jan-20 08:31N 35°31' E 139°46'0 0.0
2015-Jan-20 07:31N 35°31' E 139°46'4 4.5
2015-Jan-20 06:33N 35°28' E 139°42'5 4.6
2015-Jan-20 05:31N 35°24' E 139°44'0 0.0
2015-Jan-20 04:31N 35°24' E 139°44'0 0.1
2015-Jan-20 03:19N 35°24' E 139°44'0 0.0
2015-Jan-20 02:25N 35°24' E 139°44'0 0.0
2015-Jan-20 01:31N 35°24' E 139°44'0 0.0
2015-Jan-20 00:28N 35°24' E 139°44'0 0.0
2015-Jan-19 23:28N 35°24' E 139°44'4 3.9
2015-Jan-19 22:33N 35°20' E 139°44'1211.9
2015-Jan-19 21:33N 35°09' E 139°46'1413.9
2015-Jan-19 20:33N 34°55' E 139°45'1312.6
2015-Jan-19 19:32N 34°54' E 140°01'  
2015-Jan-17 13:04N 34°53' E 139°47'713.4
2015-Jan-17 12:33N 34°59' E 139°43'1414.1
2015-Jan-17 11:33N 35°12' E 139°46'1312.6
2015-Jan-17 10:34N 35°25' E 139°43'7 6.6
2015-Jan-17 09:32N 35°31' E 139°46'0 0.0
2015-Jan-17 08:29N 35°31' E 139°46'0 0.0
2015-Jan-17 07:23N 35°31' E 139°46'0 0.0
2015-Jan-17 06:20N 35°31' E 139°46'0 0.0
2015-Jan-17 05:23N 35°31' E 139°46'0 0.0
2015-Jan-17 04:32N 35°31' E 139°46'0 0.0
2015-Jan-17 03:23N 35°31' E 139°46'0 0.1
2015-Jan-17 02:30N 35°31' E 139°46'5 5.6
2015-Jan-17 01:33N 35°26' E 139°44'2 2.4
2015-Jan-17 00:31N 35°24' E 139°44'1010.5
2015-Jan-16 23:33N 35°14' E 139°47'1413.5
2015-Jan-16 22:33N 35°00' E 139°44'11 8.9
2015-Jan-16 21:20N 34°52' E 139°52'810.0
2015-Jan-16 20:33N 34°54' E 140°01'  

Dump ship's entire track history